Time,TemperatureF,DewpointF,PressureIn,WindDirection,WindDirectionDegrees,WindSpeedMPH,WindSpeedGustMPH,Humidity,HourlyPrecipIn,Conditions,Clouds,dailyrainin,SoftwareType,DateUTC
2013-06-02 00:00:00,63.2,60.8,29.58,SSW,196,2.0,2.0,92,0.00,,,0.00,Wunderground v.1.15,2013-06-02 04:00:00,
2013-06-02 00:06:00,63.1,60.7,29.58,SSW,196,0.0,2.0,92,0.00,,,0.00,Wunderground v.1.15,2013-06-02 04:06:00,
2013-06-02 00:10:00,63.1,60.7,29.58,SW,229,0.0,0.0,92,0.00,,,0.00,Wunderground v.1.15,2013-06-02 04:10:00,
2013-06-02 00:15:00,62.9,60.5,29.56,SW,229,0.0,0.0,92,0.00,,,0.00,Wunderground v.1.15,2013-06-02 04:15:00,
2013-06-02 00:20:00,62.9,60.5,29.56,SW,229,0.0,0.0,92,0.00,,,0.00,Wunderground v.1.15,2013-06-02 04:20:00,
2013-06-02 00:25:00,62.9,60.5,29.56,SW,229,0.0,0.0,92,0.00,,,0.00,Wunderground v.1.15,2013-06-02 04:25:00,
2013-06-02 00:35:00,62.9,60.5,29.57,West,278,1.0,2.0,92,0.00,,,0.00,Wunderground v.1.15,2013-06-02 04:35:00,
2013-06-02 00:45:00,62.7,60.3,29.57,West,268,3.0,3.0,92,0.00,,,0.00,Wunderground v.1.15,2013-06-02 04:45:00,
2013-06-02 00:50:00,62.7,60.3,29.57,West,275,2.0,2.0,92,0.00,,,0.00,Wunderground v.1.15,2013-06-02 04:50:00,
2013-06-02 01:00:00,62.1,59.7,29.58,South,179,1.0,2.0,92,0.00,,,0.00,Wunderground v.1.15,2013-06-02 05:00:00,
2013-06-02 01:06:00,61.6,59.3,29.58,SW,232,1.0,2.0,92,0.00,,,0.00,Wunderground v.1.15,2013-06-02 05:06:00,
2013-06-02 01:15:00,61.3,59.0,29.58,WSW,250,1.0,2.0,92,0.00,,,0.00,Wunderground v.1.15,2013-06-02 05:15:00,
2013-06-02 01:20:00,61.2,58.9,29.58,SSW,200,1.0,4.0,92,0.00,,,0.00,Wunderground v.1.15,2013-06-02 05:20:00,
2013-06-02 01:25:00,61.0,58.7,29.58,SW,220,1.0,4.0,92,0.00,,,0.00,Wunderground v.1.15,2013-06-02 05:25:00,
2013-06-02 01:30:00,60.9,58.6,29.57,WSW,241,1.0,1.0,92,0.00,,,0.00,Wunderground v.1.15,2013-06-02 05:30:00,
2013-06-02 01:40:00,60.7,58.4,29.57,SSW,208,1.0,1.0,92,0.00,,,0.00,Wunderground v.1.15,2013-06-02 05:40:00,
2013-06-02 01:45:00,60.7,58.4,29.58,SSW,208,1.0,2.0,92,0.00,,,0.00,Wunderground v.1.15,2013-06-02 05:45:00,
2013-06-02 01:50:00,60.7,58.4,29.58,West,277,1.0,1.0,92,0.00,,,0.00,Wunderground v.1.15,2013-06-02 05:50:00,
2013-06-02 01:55:00,60.7,58.4,29.58,West,277,0.0,1.0,92,0.00,,,0.00,Wunderground v.1.15,2013-06-02 05:55:00,
2013-06-02 02:05:00,60.5,58.2,29.57,West,277,0.0,0.0,92,0.00,,,0.00,Wunderground v.1.15,2013-06-02 06:05:00,
2013-06-02 02:15:00,60.5,58.2,29.57,West,277,0.0,0.0,92,0.00,,,0.00,Wunderground v.1.15,2013-06-02 06:15:00,
2013-06-02 02:20:00,60.4,58.1,29.57,West,277,0.0,0.0,92,0.00,,,0.00,Wunderground v.1.15,2013-06-02 06:20:00,
2013-06-02 02:25:00,60.4,58.1,29.57,West,277,0.0,0.0,92,0.00,,,0.00,Wunderground v.1.15,2013-06-02 06:25:00,
2013-06-02 02:35:00,60.2,57.9,29.57,West,277,0.0,0.0,92,0.00,,,0.00,Wunderground v.1.15,2013-06-02 06:35:00,
2013-06-02 02:40:00,60.2,57.9,29.57,SSW,208,1.0,1.0,92,0.00,,,0.00,Wunderground v.1.15,2013-06-02 06:40:00,
2013-06-02 02:50:00,60.2,57.9,29.57,SSW,202,2.0,2.0,92,0.00,,,0.00,Wunderground v.1.15,2013-06-02 06:50:00,
2013-06-02 02:55:00,60.2,57.9,29.57,WNW,288,1.0,3.0,92,0.00,,,0.00,Wunderground v.1.15,2013-06-02 06:55:00,
2013-06-02 03:00:00,60.4,58.1,29.57,SW,216,1.0,2.0,92,0.00,,,0.00,Wunderground v.1.15,2013-06-02 07:00:00,
2013-06-02 03:05:00,60.4,58.1,29.57,WNW,282,2.0,2.0,92,0.00,,,0.00,Wunderground v.1.15,2013-06-02 07:05:00,
2013-06-02 03:15:00,60.5,58.2,29.56,WNW,289,3.0,3.0,92,0.00,,,0.00,Wunderground v.1.15,2013-06-02 07:15:00,
2013-06-02 03:20:00,60.5,58.2,29.56,WNW,292,3.0,3.0,92,0.00,,,0.00,Wunderground v.1.15,2013-06-02 07:20:00,
2013-06-02 03:30:00,60.5,58.2,29.56,West,278,3.0,3.0,92,0.00,,,0.00,Wunderground v.1.15,2013-06-02 07:30:00,
2013-06-02 03:35:00,60.5,58.2,29.56,West,268,3.0,6.0,92,0.00,,,0.00,Wunderground v.1.15,2013-06-02 07:35:00,
2013-06-02 03:45:00,60.2,57.9,29.56,West,280,4.0,4.0,92,0.00,,,0.00,Wunderground v.1.15,2013-06-02 07:45:00,
2013-06-02 03:50:00,60.2,57.9,29.56,WNW,284,3.0,3.0,92,0.00,,,0.00,Wunderground v.1.15,2013-06-02 07:50:00,
2013-06-02 04:00:00,60.1,57.8,29.57,West,263,3.0,3.0,92,0.00,,,0.00,Wunderground v.1.15,2013-06-02 08:00:00,
2013-06-02 04:05:00,59.8,57.5,29.57,West,270,4.0,4.0,92,0.00,,,0.00,Wunderground v.1.15,2013-06-02 08:05:00,
2013-06-02 04:15:00,59.5,57.2,29.57,West,281,3.0,4.0,92,0.00,,,0.00,Wunderground v.1.15,2013-06-02 08:15:00,
2013-06-02 04:20:00,59.3,57.0,29.57,South,191,2.0,2.0,92,0.00,,,0.00,Wunderground v.1.15,2013-06-02 08:20:00,
2013-06-02 04:25:00,59.2,56.9,29.57,WNW,284,2.0,2.0,92,0.00,,,0.00,Wunderground v.1.15,2013-06-02 08:25:00,
2013-06-02 04:35:00,58.7,56.4,29.57,West,275,4.0,4.0,92,0.00,,,0.00,Wunderground v.1.15,2013-06-02 08:35:00,
2013-06-02 04:40:00,58.4,56.1,29.57,SSW,198,5.0,5.0,92,0.00,,,0.00,Wunderground v.1.15,2013-06-02 08:40:00,
2013-06-02 04:45:00,58.1,55.8,29.57,WNW,284,5.0,5.0,92,0.00,,,0.00,Wunderground v.1.15,2013-06-02 08:45:00,
2013-06-02 04:50:00,58.1,55.8,29.57,SW,232,3.0,3.0,92,0.00,,,0.00,Wunderground v.1.15,2013-06-02 08:50:00,
2013-06-02 05:00:00,57.8,55.5,29.58,West,280,4.0,4.0,92,0.00,,,0.00,Wunderground v.1.15,2013-06-02 09:00:00,
2013-06-02 05:06:00,57.3,55.0,29.58,WNW,289,5.0,5.0,92,0.00,,,0.00,Wunderground v.1.15,2013-06-02 09:06:00,
2013-06-02 05:15:00,57.0,54.7,29.59,West,277,3.0,5.0,92,0.00,,,0.00,Wunderground v.1.15,2013-06-02 09:15:00,
2013-06-02 05:20:00,56.9,54.6,29.59,WNW,291,2.0,2.0,92,0.00,,,0.00,Wunderground v.1.15,2013-06-02 09:20:00,
2013-06-02 05:25:00,56.7,54.7,29.59,NNW,337,2.0,2.0,93,0.00,,,0.00,Wunderground v.1.15,2013-06-02 09:25:00,
2013-06-02 05:30:00,56.6,54.6,29.59,West,274,1.0,2.0,93,0.00,,,0.00,Wunderground v.1.15,2013-06-02 09:30:00,
2013-06-02 05:40:00,56.6,54.6,29.59,West,261,2.0,2.0,93,0.00,,,0.00,Wunderground v.1.15,2013-06-02 09:40:00,
2013-06-02 05:45:00,56.6,54.6,29.59,WNW,287,2.0,2.0,93,0.00,,,0.00,Wunderground v.1.15,2013-06-02 09:45:00,
2013-06-02 05:55:00,56.5,54.5,29.59,WNW,291,1.0,2.0,93,0.00,,,0.00,Wunderground v.1.15,2013-06-02 09:55:00,
2013-06-02 06:00:00,56.5,54.5,29.60,NNW,330,1.0,1.0,93,0.00,,,0.00,Wunderground v.1.15,2013-06-02 10:00:00,
2013-06-02 06:05:00,56.3,54.3,29.60,WNW,287,2.0,2.0,93,0.00,,,0.00,Wunderground v.1.15,2013-06-02 10:05:00,
2013-06-02 06:15:00,56.2,54.2,29.61,WSW,246,4.0,4.0,93,0.00,,,0.00,Wunderground v.1.15,2013-06-02 10:15:00,
2013-06-02 06:25:00,56.0,54.0,29.61,WNW,292,3.0,3.0,93,0.00,,,0.00,Wunderground v.1.15,2013-06-02 10:25:00,
2013-06-02 06:30:00,56.0,54.0,29.62,West,275,3.0,3.0,93,0.00,,,0.00,Wunderground v.1.15,2013-06-02 10:30:00,
2013-06-02 06:35:00,55.9,53.9,29.62,West,277,3.0,3.0,93,0.00,,,0.00,Wunderground v.1.15,2013-06-02 10:35:00,
2013-06-02 06:45:00,55.9,53.9,29.62,West,278,1.0,3.0,93,0.00,,,0.00,Wunderground v.1.15,2013-06-02 10:45:00,
2013-06-02 06:50:00,55.9,53.9,29.62,West,268,2.0,4.0,93,0.00,,,0.00,Wunderground v.1.15,2013-06-02 10:50:00,
2013-06-02 07:00:00,55.9,53.9,29.64,NW,304,2.0,2.0,93,0.00,,,0.00,Wunderground v.1.15,2013-06-02 11:00:00,
2013-06-02 07:05:00,55.7,53.7,29.64,WSW,256,2.0,3.0,93,0.00,,,0.00,Wunderground v.1.15,2013-06-02 11:05:00,
2013-06-02 07:15:00,55.1,53.1,29.65,NW,308,3.0,5.0,93,0.00,,,0.00,Wunderground v.1.15,2013-06-02 11:15:00,
2013-06-02 07:25:00,54.5,52.5,29.65,NW,305,4.0,7.0,93,0.00,,,0.00,Wunderground v.1.15,2013-06-02 11:25:00,
2013-06-02 07:30:00,53.8,51.5,29.67,West,278,4.0,4.0,92,0.00,,,0.00,Wunderground v.1.15,2013-06-02 11:30:00,
2013-06-02 07:40:00,53.1,51.1,29.67,WNW,299,5.0,5.0,93,0.00,,,0.00,Wunderground v.1.15,2013-06-02 11:40:00,
2013-06-02 07:45:00,52.9,50.9,29.68,WNW,298,4.0,5.0,93,0.00,,,0.00,Wunderground v.1.15,2013-06-02 11:45:00,
2013-06-02 07:50:00,52.8,50.8,29.68,West,267,4.0,4.0,93,0.00,,,0.00,Wunderground v.1.15,2013-06-02 11:50:00,
2013-06-02 08:00:00,53.1,51.1,29.68,WNW,301,4.0,4.0,93,0.00,,,0.00,Wunderground v.1.15,2013-06-02 12:00:00,
2013-06-02 08:06:00,53.1,51.4,29.68,West,263,3.0,5.0,94,0.00,,,0.00,Wunderground v.1.15,2013-06-02 12:06:00,
2013-06-02 08:15:00,53.1,51.1,29.70,North,353,3.0,3.0,93,0.00,,,0.00,Wunderground v.1.15,2013-06-02 12:15:00,
2013-06-02 08:20:00,52.8,50.8,29.70,NW,325,3.0,3.0,93,0.00,,,0.00,Wunderground v.1.15,2013-06-02 12:20:00,
2013-06-02 08:25:00,52.3,50.3,29.70,NW,322,3.0,5.0,93,0.00,,,0.00,Wunderground v.1.15,2013-06-02 12:25:00,
2013-06-02 08:30:00,51.4,49.4,29.71,West,267,4.0,4.0,93,0.00,,,0.00,Wunderground v.1.15,2013-06-02 12:30:00,
2013-06-02 08:40:00,50.7,48.7,29.71,NNE,24,6.0,6.0,93,0.00,,,0.00,Wunderground v.1.15,2013-06-02 12:40:00,
2013-06-02 08:45:00,50.5,48.6,29.72,NW,313,5.0,6.0,93,0.00,,,0.00,Wunderground v.1.15,2013-06-02 12:45:00,
2013-06-02 08:50:00,50.5,48.6,29.72,WSW,243,3.0,3.0,93,0.00,,,0.00,Wunderground v.1.15,2013-06-02 12:50:00,
2013-06-02 09:00:00,50.1,48.2,29.74,WNW,284,3.0,3.0,93,0.00,,,0.00,Wunderground v.1.15,2013-06-02 13:00:00,
2013-06-02 09:05:00,49.9,48.0,29.74,North,350,3.0,6.0,93,0.00,,,0.00,Wunderground v.1.15,2013-06-02 13:05:00,
2013-06-02 09:15:00,49.4,47.2,29.76,West,274,4.0,6.0,92,0.00,,,0.00,Wunderground v.1.15,2013-06-02 13:15:00,
2013-06-02 09:20:00,49.2,47.0,29.76,WNW,299,4.0,4.0,92,0.00,,,0.00,Wunderground v.1.15,2013-06-02 13:20:00,
2013-06-02 09:25:00,49.2,47.0,29.76,North,8,4.0,6.0,92,0.00,,,0.00,Wunderground v.1.15,2013-06-02 13:25:00,
2013-06-02 09:45:00,48.8,46.3,29.77,North,0,4.0,8.0,91,0.00,,,0.00,Wunderground v.1.15,2013-06-02 13:45:00,
2013-06-02 09:55:00,49.1,46.3,29.77,North,0,4.0,4.0,90,0.00,,,0.00,Wunderground v.1.15,2013-06-02 13:55:00,
2013-06-02 10:05:00,49.4,46.6,29.77,North,11,3.0,4.0,90,0.00,,,0.00,Wunderground v.1.15,2013-06-02 14:05:00,
2013-06-02 10:15:00,49.6,46.2,29.77,NNW,333,4.0,5.0,88,0.00,,,0.00,Wunderground v.1.15,2013-06-02 14:15:00,
2013-06-02 10:20:00,49.5,46.1,29.77,NNW,342,4.0,12.0,88,0.00,,,0.00,Wunderground v.1.15,2013-06-02 14:20:00,
2013-06-02 10:25:00,49.6,45.9,29.77,NNE,28,4.0,12.0,87,0.00,,,0.00,Wunderground v.1.15,2013-06-02 14:25:00,
2013-06-02 10:30:00,49.6,45.6,29.78,NNE,14,4.0,4.0,86,0.00,,,0.00,Wunderground v.1.15,2013-06-02 14:30:00,
2013-06-02 10:40:00,50.1,45.8,29.78,West,265,3.0,3.0,85,0.00,,,0.00,Wunderground v.1.15,2013-06-02 14:40:00,
2013-06-02 10:45:00,50.4,46.1,29.79,WNW,284,3.0,3.0,85,0.00,,,0.00,Wunderground v.1.15,2013-06-02 14:45:00,
2013-06-02 10:55:00,50.4,45.1,29.79,NNW,337,3.0,5.0,82,0.00,,,0.00,Wunderground v.1.15,2013-06-02 14:55:00,
2013-06-02 11:00:00,50.2,44.3,29.80,North,0,4.0,8.0,80,0.00,,,0.00,Wunderground v.1.15,2013-06-02 15:00:00,
2013-06-02 11:06:00,50.2,44.6,29.80,WNW,296,5.0,8.0,81,0.00,,,0.00,Wunderground v.1.15,2013-06-02 15:06:00,
2013-06-02 11:15:00,50.8,44.9,29.80,SW,236,5.0,5.0,80,0.00,,,0.00,Wunderground v.1.15,2013-06-02 15:15:00,
2013-06-02 11:20:00,51.1,44.5,29.80,NNW,344,3.0,3.0,78,0.00,,,0.00,Wunderground v.1.15,2013-06-02 15:20:00,
2013-06-02 11:30:00,51.0,44.4,29.80,NNE,14,5.0,5.0,78,0.00,,,0.00,Wunderground v.1.15,2013-06-02 15:30:00,
2013-06-02 11:35:00,51.3,44.7,29.80,NNE,17,5.0,6.0,78,0.00,,,0.00,Wunderground v.1.15,2013-06-02 15:35:00,
2013-06-02 11:40:00,51.6,44.6,29.80,NNE,28,4.0,4.0,77,0.00,,,0.00,Wunderground v.1.15,2013-06-02 15:40:00,
2013-06-02 11:50:00,52.2,44.9,29.80,NW,323,3.0,3.0,76,0.00,,,0.00,Wunderground v.1.15,2013-06-02 15:50:00,
2013-06-02 11:55:00,52.3,44.6,29.80,NNW,346,3.0,3.0,75,0.00,,,0.00,Wunderground v.1.15,2013-06-02 15:55:00,
2013-06-02 12:00:00,52.3,44.6,29.81,NNW,340,4.0,5.0,75,0.00,,,0.00,Wunderground v.1.15,2013-06-02 16:00:00,
2013-06-02 12:06:00,52.6,44.9,29.81,North,0,5.0,8.0,75,0.00,,,0.00,Wunderground v.1.15,2013-06-02 16:06:00,
2013-06-02 12:15:00,52.8,44.7,29.82,SE,128,4.0,4.0,74,0.00,,,0.00,Wunderground v.1.15,2013-06-02 16:15:00,
2013-06-02 12:20:00,52.8,44.4,29.82,NW,313,5.0,5.0,73,0.00,,,0.00,Wunderground v.1.15,2013-06-02 16:20:00,
2013-06-02 12:30:00,52.9,44.8,29.82,NW,313,5.0,5.0,74,0.00,,,0.00,Wunderground v.1.15,2013-06-02 16:30:00,
2013-06-02 12:35:00,53.1,44.3,29.82,NW,305,4.0,5.0,72,0.00,,,0.00,Wunderground v.1.15,2013-06-02 16:35:00,
2013-06-02 12:40:00,52.6,44.2,29.82,North,354,4.0,4.0,73,0.00,,,0.00,Wunderground v.1.15,2013-06-02 16:40:00,
2013-06-02 12:50:00,53.2,44.4,29.83,NNE,25,4.0,4.0,72,0.00,,,0.00,Wunderground v.1.15,2013-06-02 16:50:00,
2013-06-02 12:55:00,52.9,44.1,29.83,North,4,6.0,6.0,72,0.00,,,0.00,Wunderground v.1.15,2013-06-02 16:55:00,
2013-06-02 13:00:00,52.8,43.7,29.84,North,357,6.0,6.0,71,0.00,,,0.00,Wunderground v.1.15,2013-06-02 17:00:00,
2013-06-02 13:05:00,53.1,43.9,29.84,NW,320,5.0,6.0,71,0.00,,,0.00,Wunderground v.1.15,2013-06-02 17:05:00,
2013-06-02 13:15:00,53.1,43.9,29.84,WNW,302,5.0,6.0,71,0.00,,,0.00,Wunderground v.1.15,2013-06-02 17:15:00,
2013-06-02 13:20:00,53.3,43.8,29.84,NE,37,4.0,4.0,70,0.00,,,0.00,Wunderground v.1.15,2013-06-02 17:20:00,
2013-06-02 13:30:00,53.9,44.3,29.84,North,359,4.0,7.0,70,0.00,,,0.00,Wunderground v.1.15,2013-06-02 17:30:00,
2013-06-02 13:35:00,54.1,44.2,29.84,North,6,4.0,7.0,69,0.00,,,0.00,Wunderground v.1.15,2013-06-02 17:35:00,
2013-06-02 13:40:00,54.2,44.2,29.84,NNE,24,4.0,4.0,69,0.00,,,0.00,Wunderground v.1.15,2013-06-02 17:40:00,
2013-06-02 13:50:00,54.4,44.4,29.85,North,356,4.0,4.0,69,0.00,,,0.00,Wunderground v.1.15,2013-06-02 17:50:00,
2013-06-02 13:55:00,54.4,44.4,29.85,North,8,4.0,4.0,69,0.00,,,0.00,Wunderground v.1.15,2013-06-02 17:55:00,
2013-06-02 14:00:00,54.7,44.3,29.85,North,8,4.0,5.0,68,0.00,,,0.00,Wunderground v.1.15,2013-06-02 18:00:00,
2013-06-02 14:05:00,54.5,44.5,29.85,NNE,31,3.0,5.0,69,0.00,,,0.00,Wunderground v.1.15,2013-06-02 18:05:00,
2013-06-02 14:10:00,54.4,44.1,29.85,North,0,4.0,6.0,68,0.00,,,0.00,Wunderground v.1.15,2013-06-02 18:10:00,
2013-06-02 14:20:00,54.2,43.5,29.86,North,0,4.0,4.0,67,0.00,,,0.00,Wunderground v.1.15,2013-06-02 18:20:00,
2013-06-02 14:25:00,54.4,44.1,29.86,NE,42,4.0,4.0,68,0.00,,,0.00,Wunderground v.1.15,2013-06-02 18:25:00,
2013-06-02 14:30:00,54.7,43.6,29.87,NW,315,4.0,6.0,66,0.00,,,0.00,Wunderground v.1.15,2013-06-02 18:30:00,
2013-06-02 14:40:00,54.5,43.8,29.87,NW,322,4.0,4.0,67,0.00,,,0.00,Wunderground v.1.15,2013-06-02 18:40:00,
2013-06-02 14:45:00,55.0,43.8,29.87,WNW,296,3.0,4.0,66,0.00,,,0.00,Wunderground v.1.15,2013-06-02 18:45:00,
2013-06-02 14:50:00,55.1,43.5,29.87,North,353,4.0,4.0,65,0.00,,,0.00,Wunderground v.1.15,2013-06-02 18:50:00,
2013-06-02 15:00:00,55.4,44.2,29.87,NNE,21,4.0,4.0,66,0.00,,,0.00,Wunderground v.1.15,2013-06-02 19:00:00,
2013-06-02 15:05:00,55.6,43.6,29.87,NW,323,4.0,4.0,64,0.00,,,0.00,Wunderground v.1.15,2013-06-02 19:05:00,
2013-06-02 15:15:00,55.6,43.2,29.87,WNW,298,4.0,5.0,63,0.00,,,0.00,Wunderground v.1.15,2013-06-02 19:15:00,
2013-06-02 15:20:00,55.4,43.8,29.87,NNE,21,4.0,6.0,65,0.00,,,0.00,Wunderground v.1.15,2013-06-02 19:20:00,
2013-06-02 15:25:00,55.3,42.9,29.87,West,261,4.0,6.0,63,0.00,,,0.00,Wunderground v.1.15,2013-06-02 19:25:00,
2013-06-02 15:30:00,55.6,43.6,29.87,East,79,4.0,4.0,64,0.00,,,0.00,Wunderground v.1.15,2013-06-02 19:30:00,
2013-06-02 15:40:00,56.3,43.9,29.87,NNW,337,3.0,3.0,63,0.00,,,0.00,Wunderground v.1.15,2013-06-02 19:40:00,
2013-06-02 15:45:00,56.0,42.7,29.88,North,0,4.0,5.0,61,0.00,,,0.00,Wunderground v.1.15,2013-06-02 19:45:00,
2013-06-02 15:50:00,55.9,42.6,29.88,NW,315,5.0,5.0,61,0.00,,,0.00,Wunderground v.1.15,2013-06-02 19:50:00,
2013-06-02 15:55:00,56.0,43.2,29.88,WNW,299,4.0,5.0,62,0.00,,,0.00,Wunderground v.1.15,2013-06-02 19:55:00,
2013-06-02 16:05:00,56.2,43.3,29.88,NW,315,4.0,4.0,62,0.00,,,0.00,Wunderground v.1.15,2013-06-02 20:05:00,
2013-06-02 16:15:00,56.3,43.0,29.88,NNE,17,4.0,4.0,61,0.00,,,0.00,Wunderground v.1.15,2013-06-02 20:15:00,
2013-06-02 16:20:00,56.3,43.4,29.88,NNW,332,4.0,4.0,62,0.00,,,0.00,Wunderground v.1.15,2013-06-02 20:20:00,
2013-06-02 16:25:00,56.3,43.0,29.88,NNW,346,3.0,6.0,61,0.00,,,0.00,Wunderground v.1.15,2013-06-02 20:25:00,
2013-06-02 16:30:00,56.2,42.9,29.88,North,4,3.0,3.0,61,0.00,,,0.00,Wunderground v.1.15,2013-06-02 20:30:00,
2013-06-02 16:35:00,56.3,43.9,29.88,NE,45,2.0,3.0,63,0.00,,,0.00,Wunderground v.1.15,2013-06-02 20:35:00,
2013-06-02 16:45:00,55.7,42.5,29.88,North,3,4.0,7.0,61,0.00,,,0.00,Wunderground v.1.15,2013-06-02 20:45:00,
2013-06-02 16:50:00,55.7,42.9,29.88,North,0,4.0,4.0,62,0.00,,,0.00,Wunderground v.1.15,2013-06-02 20:50:00,
2013-06-02 16:55:00,55.4,42.6,29.88,North,350,4.0,4.0,62,0.00,,,0.00,Wunderground v.1.15,2013-06-02 20:55:00,
2013-06-02 17:05:00,56.3,42.6,29.88,NW,325,3.0,3.0,60,0.00,,,0.00,Wunderground v.1.15,2013-06-02 21:05:00,
2013-06-02 17:15:00,57.2,43.4,29.88,WNW,301,3.0,3.0,60,0.00,,,0.00,Wunderground v.1.15,2013-06-02 21:15:00,
2013-06-02 17:20:00,57.5,42.8,29.88,West,271,3.0,3.0,58,0.00,,,0.00,Wunderground v.1.15,2013-06-02 21:20:00,
2013-06-02 17:25:00,57.3,42.2,29.88,NNE,28,4.0,4.0,57,0.00,,,0.00,Wunderground v.1.15,2013-06-02 21:25:00,
2013-06-02 17:30:00,56.9,42.7,29.88,NW,320,3.0,5.0,59,0.00,,,0.00,Wunderground v.1.15,2013-06-02 21:30:00,
2013-06-02 17:35:00,56.6,43.3,29.88,NNW,330,3.0,6.0,61,0.00,,,0.00,Wunderground v.1.15,2013-06-02 21:35:00,
2013-06-02 17:45:00,56.3,42.1,29.89,NNE,25,3.0,4.0,59,0.00,,,0.00,Wunderground v.1.15,2013-06-02 21:45:00,
2013-06-02 17:50:00,56.6,42.4,29.89,NE,42,3.0,3.0,59,0.00,,,0.00,Wunderground v.1.15,2013-06-02 21:50:00,
2013-06-02 18:00:00,57.3,42.2,29.89,NNW,336,4.0,4.0,57,0.00,,,0.00,Wunderground v.1.15,2013-06-02 22:00:00,
2013-06-02 18:05:00,57.6,42.5,29.89,NNW,344,3.0,8.0,57,0.00,,,0.00,Wunderground v.1.15,2013-06-02 22:05:00,
2013-06-02 18:15:00,56.7,42.1,29.89,NNE,25,4.0,6.0,58,0.00,,,0.00,Wunderground v.1.15,2013-06-02 22:15:00,
2013-06-02 18:20:00,56.7,42.5,29.89,NW,311,4.0,4.0,59,0.00,,,0.00,Wunderground v.1.15,2013-06-02 22:20:00,
2013-06-02 18:25:00,56.9,42.7,29.89,ENE,65,3.0,5.0,59,0.00,,,0.00,Wunderground v.1.15,2013-06-02 22:25:00,
2013-06-02 18:35:00,56.0,41.9,29.89,NNW,339,4.0,4.0,59,0.00,,,0.00,Wunderground v.1.15,2013-06-02 22:35:00,
2013-06-02 18:40:00,55.7,42.0,29.89,NE,44,4.0,8.0,60,0.00,,,0.00,Wunderground v.1.15,2013-06-02 22:40:00,
2013-06-02 18:45:00,55.6,41.9,29.90,North,0,5.0,11.0,60,0.00,,,0.00,Wunderground v.1.15,2013-06-02 22:45:00,
2013-06-02 18:50:00,55.3,41.6,29.90,North,0,5.0,7.0,60,0.00,,,0.00,Wunderground v.1.15,2013-06-02 22:50:00,
2013-06-02 19:00:00,55.7,41.6,29.90,NE,37,3.0,3.0,59,0.00,,,0.00,Wunderground v.1.15,2013-06-02 23:00:00,
2013-06-02 19:06:00,56.0,41.9,29.90,NNE,27,4.0,4.0,59,0.00,,,0.00,Wunderground v.1.15,2013-06-02 23:06:00,
2013-06-02 19:15:00,54.7,41.1,29.91,North,359,6.0,6.0,60,0.00,,,0.00,Wunderground v.1.15,2013-06-02 23:15:00,
2013-06-02 19:20:00,54.7,41.5,29.91,NNW,343,4.0,7.0,61,0.00,,,0.00,Wunderground v.1.15,2013-06-02 23:20:00,
2013-06-02 19:25:00,54.2,41.0,29.91,NNE,31,3.0,7.0,61,0.00,,,0.00,Wunderground v.1.15,2013-06-02 23:25:00,
2013-06-02 19:35:00,53.2,40.9,29.92,NE,34,4.0,6.0,63,0.00,,,0.00,Wunderground v.1.15,2013-06-02 23:35:00,
2013-06-02 19:40:00,52.9,40.6,29.92,NNE,14,4.0,4.0,63,0.00,,,0.00,Wunderground v.1.15,2013-06-02 23:40:00,
2013-06-02 19:50:00,52.8,40.1,29.92,NNE,25,4.0,7.0,62,0.00,,,0.00,Wunderground v.1.15,2013-06-02 23:50:00,
2013-06-02 19:55:00,52.5,40.3,29.92,NNW,346,4.0,7.0,63,0.00,,,0.00,Wunderground v.1.15,2013-06-02 23:55:00,
2013-06-02 20:00:00,52.3,40.5,29.93,North,0,5.0,5.0,64,0.00,,,0.00,Wunderground v.1.15,2013-06-03 00:00:00,
2013-06-02 20:05:00,52.0,40.6,29.93,NNW,339,5.0,7.0,65,0.00,,,0.00,Wunderground v.1.15,2013-06-03 00:05:00,
2013-06-02 20:15:00,51.4,40.4,29.94,North,0,4.0,4.0,66,0.00,,,0.00,Wunderground v.1.15,2013-06-03 00:15:00,
2013-06-02 20:25:00,51.4,40.0,29.94,NNW,347,2.0,2.0,65,0.00,,,0.00,Wunderground v.1.15,2013-06-03 00:25:00,
2013-06-02 20:30:00,51.4,40.4,29.94,North,10,2.0,2.0,66,0.00,,,0.00,Wunderground v.1.15,2013-06-03 00:30:00,
2013-06-02 20:35:00,51.3,39.9,29.94,North,0,3.0,3.0,65,0.00,,,0.00,Wunderground v.1.15,2013-06-03 00:35:00,
2013-06-02 20:40:00,51.3,39.9,29.94,North,359,4.0,6.0,65,0.00,,,0.00,Wunderground v.1.15,2013-06-03 00:40:00,
2013-06-02 20:50:00,51.4,40.4,29.94,NNW,346,3.0,9.0,66,0.00,,,0.00,Wunderground v.1.15,2013-06-03 00:50:00,
2013-06-02 20:55:00,51.4,40.4,29.94,North,10,3.0,9.0,66,0.00,,,0.00,Wunderground v.1.15,2013-06-03 00:55:00,
2013-06-02 21:00:00,51.4,40.4,29.94,NNW,346,3.0,3.0,66,0.00,,,0.00,Wunderground v.1.15,2013-06-03 01:00:00,
2013-06-02 21:05:00,51.3,40.3,29.94,NE,34,2.0,3.0,66,0.00,,,0.00,Wunderground v.1.15,2013-06-03 01:05:00,
2013-06-02 21:15:00,51.1,40.5,29.94,North,10,2.0,2.0,67,0.00,,,0.00,Wunderground v.1.15,2013-06-03 01:15:00,
2013-06-02 21:25:00,50.7,40.1,29.94,North,6,4.0,6.0,67,0.00,,,0.00,Wunderground v.1.15,2013-06-03 01:25:00,
2013-06-02 21:30:00,50.5,39.9,29.94,NNE,24,3.0,3.0,67,0.00,,,0.00,Wunderground v.1.15,2013-06-03 01:30:00,
2013-06-02 21:35:00,50.4,40.2,29.94,North,0,2.0,3.0,68,0.00,,,0.00,Wunderground v.1.15,2013-06-03 01:35:00,
2013-06-02 21:45:00,50.1,39.6,29.95,North,4,2.0,6.0,67,0.00,,,0.00,Wunderground v.1.15,2013-06-03 01:45:00,
2013-06-02 21:50:00,49.9,39.4,29.95,North,357,3.0,3.0,67,0.00,,,0.00,Wunderground v.1.15,2013-06-03 01:50:00,
2013-06-02 21:55:00,49.8,39.3,29.95,NNE,28,3.0,3.0,67,0.00,,,0.00,Wunderground v.1.15,2013-06-03 01:55:00,
2013-06-02 22:00:00,49.8,39.3,29.96,North,0,3.0,3.0,67,0.00,,,0.00,Wunderground v.1.15,2013-06-03 02:00:00,
2013-06-02 22:05:00,49.6,39.1,29.96,NNE,14,2.0,5.0,67,0.00,,,0.00,Wunderground v.1.15,2013-06-03 02:05:00,
2013-06-02 22:15:00,49.2,39.1,29.96,North,10,2.0,2.0,68,0.00,,,0.00,Wunderground v.1.15,2013-06-03 02:15:00,
2013-06-02 22:20:00,49.1,39.4,29.96,North,10,1.0,1.0,69,0.00,,,0.00,Wunderground v.1.15,2013-06-03 02:20:00,
2013-06-02 22:25:00,48.9,39.5,29.96,North,0,1.0,2.0,70,0.00,,,0.00,Wunderground v.1.15,2013-06-03 02:25:00,
2013-06-02 22:30:00,48.8,39.4,29.97,NNW,344,1.0,3.0,70,0.00,,,0.00,Wunderground v.1.15,2013-06-03 02:30:00,
2013-06-02 22:35:00,48.6,39.3,29.97,North,7,2.0,3.0,70,0.00,,,0.00,Wunderground v.1.15,2013-06-03 02:35:00,
2013-06-02 22:45:00,48.5,39.5,29.96,North,7,1.0,1.0,71,0.00,,,0.00,Wunderground v.1.15,2013-06-03 02:45:00,
2013-06-02 22:50:00,48.2,39.6,29.96,North,7,0.0,0.0,72,0.00,,,0.00,Wunderground v.1.15,2013-06-03 02:50:00,
2013-06-02 22:55:00,48.0,39.4,29.96,NE,34,1.0,1.0,72,0.00,,,0.00,Wunderground v.1.15,2013-06-03 02:55:00,
2013-06-02 23:05:00,47.7,39.1,29.97,NE,37,1.0,2.0,72,0.00,,,0.00,Wunderground v.1.15,2013-06-03 03:05:00,
2013-06-02 23:15:00,47.6,39.4,29.97,NE,37,0.0,1.0,73,0.00,,,0.00,Wunderground v.1.15,2013-06-03 03:15:00,
2013-06-02 23:25:00,47.3,39.1,29.97,NE,37,1.0,1.0,73,0.00,,,0.00,Wunderground v.1.15,2013-06-03 03:25:00,
2013-06-02 23:30:00,47.1,39.2,29.97,NE,37,1.0,1.0,74,0.00,,,0.00,Wunderground v.1.15,2013-06-03 03:30:00,
2013-06-02 23:40:00,46.8,39.3,29.97,NE,37,0.0,0.0,75,0.00,,,0.00,Wunderground v.1.15,2013-06-03 03:40:00,
2013-06-02 23:45:00,46.7,39.5,29.96,NE,37,0.0,0.0,76,0.00,,,0.00,Wunderground v.1.15,2013-06-03 03:45:00,
2013-06-02 23:50:00,46.5,39.3,29.96,NE,37,0.0,0.0,76,0.00,,,0.00,Wunderground v.1.15,2013-06-03 03:50:00,
2013-06-02 23:55:00,46.4,39.6,29.96,NE,37,0.0,0.0,77,0.00,,,0.00,Wunderground v.1.15,2013-06-03 03:55:00,